createdAt,value
2022-12-27T00:00:03.200Z,1007.14
2022-12-27T00:05:03.059Z,1007.17
2022-12-27T00:10:03.230Z,1007.24
2022-12-27T00:15:03.045Z,1007.26
2022-12-27T00:20:10.607Z,1007.28
2022-12-27T00:25:03.101Z,1007.38
2022-12-27T00:30:03.215Z,1007.53
2022-12-27T00:35:03.218Z,1007.57
2022-12-27T00:40:03.241Z,1007.64
2022-12-27T00:45:03.243Z,1007.66
2022-12-27T00:50:03.101Z,1007.69
2022-12-27T00:55:03.193Z,1007.78
2022-12-27T01:00:08.041Z,1007.81
2022-12-27T01:05:03.042Z,1007.83
2022-12-27T01:10:03.156Z,1007.88
2022-12-27T01:15:03.083Z,1007.93
2022-12-27T01:20:03.202Z,1007.93
2022-12-27T01:25:03.016Z,1007.91
2022-12-27T01:30:03.132Z,1007.92
2022-12-27T01:35:02.972Z,1007.93
2022-12-27T01:40:03.257Z,1007.96
2022-12-27T01:45:03.075Z,1008.0
2022-12-27T01:50:03.208Z,1008.07
2022-12-27T01:55:03.058Z,1008.08
2022-12-27T02:00:03.122Z,1008.0
2022-12-27T02:05:03.088Z,1008.08
2022-12-27T02:10:03.118Z,1008.11
2022-12-27T02:15:03.149Z,1008.09
2022-12-27T02:20:03.237Z,1008.14
2022-12-27T02:25:02.994Z,1008.13
2022-12-27T02:30:03.167Z,1008.15
2022-12-27T02:35:03.051Z,1008.15
2022-12-27T02:40:03.095Z,1008.08
2022-12-27T02:45:03.030Z,1008.06
2022-12-27T02:50:03.130Z,1008.09
2022-12-27T02:55:03.017Z,1008.05
2022-12-27T03:00:03.152Z,1008.04
2022-12-27T03:05:03.090Z,1008.01
2022-12-27T03:10:03.169Z,1008.03
2022-12-27T03:15:03.149Z,1008.07
2022-12-27T03:20:03.125Z,1008.08
2022-12-27T03:25:03.032Z,1008.03
2022-12-27T03:30:03.099Z,1007.97
2022-12-27T03:35:03.239Z,1007.96
2022-12-27T03:40:03.378Z,1007.88
2022-12-27T03:45:03.023Z,1007.88
2022-12-27T03:50:03.120Z,1007.88
2022-12-27T03:55:03.004Z,1007.85
2022-12-27T04:00:03.066Z,1007.8
2022-12-27T04:05:02.985Z,1007.77
2022-12-27T04:10:03.815Z,1007.73
2022-12-27T04:15:02.995Z,1007.6
2022-12-27T04:20:03.133Z,1007.57
2022-12-27T04:25:03.013Z,1007.49
2022-12-27T04:30:03.310Z,1007.54
2022-12-27T04:35:03.074Z,1007.57
2022-12-27T04:40:03.165Z,1007.57
2022-12-27T04:45:03.112Z,1007.52
2022-12-27T04:50:03.099Z,1007.43
2022-12-27T04:55:02.994Z,1007.39
2022-12-27T05:00:03.077Z,1007.38
2022-12-27T05:05:03.023Z,1007.43
2022-12-27T05:10:03.176Z,1007.49
2022-12-27T05:15:02.992Z,1007.47
2022-12-27T05:20:03.092Z,1007.44
2022-12-27T05:25:03.066Z,1007.45
2022-12-27T05:30:03.262Z,1007.54
2022-12-27T05:35:02.956Z,1007.56
2022-12-27T05:40:03.172Z,1007.48
2022-12-27T05:45:03.022Z,1007.49
2022-12-27T05:50:03.082Z,1007.46
2022-12-27T05:55:03.031Z,1007.52
2022-12-27T06:00:03.112Z,1007.5
2022-12-27T06:05:03.141Z,1007.64
2022-12-27T06:10:03.150Z,1007.64
2022-12-27T06:15:03.069Z,1007.72
2022-12-27T06:20:03.114Z,1007.72
2022-12-27T06:25:04.021Z,1007.77
2022-12-27T06:30:03.209Z,1007.76
2022-12-27T06:35:03.029Z,1007.82
2022-12-27T06:40:03.220Z,1007.97
2022-12-27T06:45:03.210Z,1008.03
2022-12-27T06:50:03.118Z,1008.06
2022-12-27T06:55:02.995Z,1008.06
2022-12-27T07:00:03.112Z,1008.08
2022-12-27T07:05:03.015Z,1008.07
2022-12-27T07:10:03.103Z,1008.1
2022-12-27T07:15:02.996Z,1008.19
2022-12-27T07:20:04.202Z,1008.27
2022-12-27T07:25:02.995Z,1008.3
2022-12-27T07:30:03.108Z,1008.32
2022-12-27T07:35:03.018Z,1008.37
2022-12-27T07:40:03.201Z,1008.44
2022-12-27T07:45:03.026Z,1008.57
2022-12-27T07:50:03.542Z,1008.62
2022-12-27T07:55:03.052Z,1008.59
2022-12-27T08:00:03.103Z,1008.6
2022-12-27T08:05:02.972Z,1008.66
2022-12-27T08:10:03.119Z,1008.74
2022-12-27T08:15:02.958Z,1008.8
2022-12-27T08:20:03.185Z,1008.73
2022-12-27T08:25:03.013Z,1008.76
2022-12-27T08:30:03.119Z,1008.76
2022-12-27T08:35:24.869Z,1008.78
2022-12-27T08:40:03.428Z,1008.8
2022-12-27T08:45:03.027Z,1008.87
2022-12-27T08:50:03.135Z,1008.95
2022-12-27T08:55:03.040Z,1008.95
2022-12-27T09:00:03.163Z,1009.02
2022-12-27T09:05:03.022Z,1009.06
2022-12-27T09:10:04.160Z,1009.14
2022-12-27T09:15:02.999Z,1009.15
2022-12-27T09:20:03.046Z,1009.22
2022-12-27T09:25:03.243Z,1009.32
2022-12-27T09:30:03.089Z,1009.37
2022-12-27T09:35:03.017Z,1009.38
2022-12-27T09:40:03.030Z,1009.44
2022-12-27T09:45:03.017Z,1009.46
2022-12-27T09:50:03.140Z,1009.49
2022-12-27T09:55:05.245Z,1009.58
2022-12-27T10:00:03.128Z,1009.64
2022-12-27T10:05:20.647Z,1009.68
2022-12-27T10:10:03.200Z,1009.76
2022-12-27T10:15:02.971Z,1009.8
2022-12-27T10:20:03.166Z,1009.85
2022-12-27T10:25:03.009Z,1009.94
2022-12-27T10:30:02.997Z,1010.14
2022-12-27T10:35:03.094Z,1010.24
2022-12-27T10:40:03.294Z,1010.32
2022-12-27T10:45:03.025Z,1010.45
2022-12-27T10:50:03.144Z,1010.52
2022-12-27T10:55:03.074Z,1010.6
2022-12-27T11:00:03.143Z,1010.63
2022-12-27T11:05:03.063Z,1010.58
2022-12-27T11:10:03.324Z,1010.56
2022-12-27T11:15:02.983Z,1010.48
2022-12-27T11:20:03.057Z,1010.48
2022-12-27T11:25:03.211Z,1010.48
2022-12-27T11:30:03.131Z,1010.51
2022-12-27T11:35:03.399Z,1010.57
2022-12-27T11:40:03.223Z,1010.63
2022-12-27T11:45:03.032Z,1010.66
2022-12-27T11:50:03.297Z,1010.63
2022-12-27T11:55:02.928Z,1010.65
2022-12-27T12:00:03.076Z,1010.65
2022-12-27T12:05:03.057Z,1010.68
2022-12-27T12:10:03.075Z,1010.69
2022-12-27T12:15:03.058Z,1010.69
2022-12-27T12:20:03.131Z,1010.67
2022-12-27T12:25:03.000Z,1010.64
2022-12-27T12:30:03.134Z,1010.67
2022-12-27T12:35:03.118Z,1010.68
2022-12-27T12:40:03.111Z,1010.68
2022-12-27T12:45:03.100Z,1010.63
2022-12-27T12:50:06.534Z,1010.64
2022-12-27T12:55:03.042Z,1010.57
2022-12-27T13:00:03.144Z,1010.54
2022-12-27T13:05:03.156Z,1010.51
2022-12-27T13:10:03.121Z,1010.45
2022-12-27T13:15:03.067Z,1010.37
2022-12-27T13:20:03.135Z,1010.37
2022-12-27T13:25:02.989Z,1010.26
2022-12-27T13:30:06.559Z,1010.2
2022-12-27T13:35:03.091Z,1010.09
2022-12-27T13:40:03.358Z,1010.09
2022-12-27T13:45:03.099Z,1010.09
2022-12-27T13:50:03.156Z,1010.04
2022-12-27T13:55:03.011Z,1009.99
2022-12-27T14:00:03.131Z,1009.9
2022-12-27T14:05:03.010Z,1009.89
2022-12-27T14:10:03.193Z,1009.79
2022-12-27T14:15:03.062Z,1009.76
2022-12-27T14:20:03.332Z,1009.69
2022-12-27T14:25:03.006Z,1009.61
2022-12-27T14:30:03.103Z,1009.55
2022-12-27T14:35:03.020Z,1009.43
2022-12-27T14:40:03.091Z,1009.42
2022-12-27T14:45:03.135Z,1009.34
2022-12-27T14:50:03.116Z,1009.22
2022-12-27T14:55:03.179Z,1009.22
2022-12-27T15:00:03.150Z,1009.22
2022-12-27T15:05:03.124Z,1009.15
2022-12-27T15:10:03.126Z,1009.04
2022-12-27T15:15:03.318Z,1009.03
2022-12-27T15:20:03.278Z,1008.97
2022-12-27T15:25:03.115Z,1008.9
2022-12-27T15:30:03.250Z,1008.74
2022-12-27T15:35:03.049Z,1008.71
2022-12-27T15:40:03.424Z,1008.74
2022-12-27T15:45:03.165Z,1008.63
2022-12-27T15:50:03.150Z,1008.5
2022-12-27T15:55:02.991Z,1008.39
2022-12-27T16:00:03.154Z,1008.3
2022-12-27T16:05:02.982Z,1008.33
2022-12-27T16:10:03.143Z,1008.15
2022-12-27T16:15:03.042Z,1007.99
2022-12-27T16:20:03.145Z,1008.02
2022-12-27T16:25:03.031Z,1007.98
2022-12-27T16:30:03.157Z,1007.85
2022-12-27T16:35:03.027Z,1007.69
2022-12-27T16:40:03.205Z,1007.65
2022-12-27T16:45:03.186Z,1007.6
2022-12-27T16:50:03.110Z,1007.54
2022-12-27T16:55:03.024Z,1007.5
2022-12-27T17:00:04.102Z,1007.41
2022-12-27T17:05:03.140Z,1007.39
2022-12-27T17:10:03.287Z,1007.42
2022-12-27T17:15:03.015Z,1007.15
2022-12-27T17:20:03.356Z,1007.22
2022-12-27T17:25:03.071Z,1007.2
2022-12-27T17:30:03.135Z,1007.19
2022-12-27T17:35:03.101Z,1007.18
2022-12-27T17:40:03.224Z,1007.03
2022-12-27T17:45:03.002Z,1006.91
2022-12-27T17:50:03.139Z,1006.75
2022-12-27T17:55:03.064Z,1006.63
2022-12-27T18:00:03.164Z,1006.61
2022-12-27T18:05:03.082Z,1006.47
2022-12-27T18:10:03.109Z,1006.32
2022-12-27T18:15:03.029Z,1006.09
2022-12-27T18:20:03.238Z,1005.96
2022-12-27T18:25:03.109Z,1005.74
2022-12-27T18:30:03.166Z,1005.62
2022-12-27T18:35:03.026Z,1005.53
2022-12-27T18:40:03.212Z,1005.41
2022-12-27T18:45:03.065Z,1005.35
2022-12-27T18:50:03.137Z,1005.19
2022-12-27T18:55:02.991Z,1005.09
2022-12-27T19:00:03.099Z,1005.04
2022-12-27T19:05:03.009Z,1005.01
2022-12-27T19:10:03.188Z,1005.01
2022-12-27T19:15:03.101Z,1004.99
2022-12-27T19:20:03.150Z,1004.95
2022-12-27T19:25:03.007Z,1004.87
2022-12-27T19:30:03.190Z,1004.88
2022-12-27T19:35:03.034Z,1004.86
2022-12-27T19:40:03.322Z,1004.71
2022-12-27T19:45:03.000Z,1004.75
2022-12-27T19:50:03.404Z,1004.62
2022-12-27T19:55:03.148Z,1004.58
2022-12-27T20:00:07.010Z,1004.51
2022-12-27T20:05:03.141Z,1004.4
2022-12-27T20:10:03.128Z,1004.44
2022-12-27T20:15:03.272Z,1004.44
2022-12-27T20:20:03.125Z,1004.29
2022-12-27T20:25:02.971Z,1004.18
2022-12-27T20:30:04.172Z,1004.23
2022-12-27T20:35:02.997Z,1004.39
2022-12-27T20:40:03.131Z,1004.38
2022-12-27T20:45:03.031Z,1004.47
2022-12-27T20:50:03.146Z,1004.38
2022-12-27T20:55:03.059Z,1004.6
2022-12-27T21:00:03.321Z,1004.93
2022-12-27T21:05:03.214Z,1004.89
2022-12-27T21:10:03.151Z,1004.88
2022-12-27T21:15:03.069Z,1004.98
2022-12-27T21:20:03.248Z,1005.07
2022-12-27T21:25:03.043Z,1005.1
2022-12-27T21:30:03.120Z,1005.02
2022-12-27T21:35:03.183Z,1005.18
2022-12-27T21:40:03.529Z,1005.28
2022-12-27T21:45:02.994Z,1005.36
2022-12-27T21:50:03.081Z,1005.35
2022-12-27T21:55:03.252Z,1005.3
2022-12-27T22:00:03.216Z,1005.28
2022-12-27T22:05:03.078Z,1005.37
2022-12-27T22:10:03.236Z,1005.49
2022-12-27T22:15:02.964Z,1005.36
2022-12-27T22:20:03.164Z,1005.41
2022-12-27T22:25:03.001Z,1005.45
2022-12-27T22:30:03.075Z,1005.71
2022-12-27T22:35:03.221Z,1005.75
2022-12-27T22:40:03.349Z,1005.72
2022-12-27T22:45:03.034Z,1005.94
2022-12-27T22:50:03.229Z,1005.86
2022-12-27T22:55:06.703Z,1006.13
2022-12-27T23:00:03.102Z,1006.63
2022-12-27T23:05:03.114Z,1007.13
2022-12-27T23:10:03.231Z,1006.98
2022-12-27T23:15:03.071Z,1006.64
2022-12-27T23:20:03.154Z,1006.47
2022-12-27T23:25:03.091Z,1006.3
2022-12-27T23:30:03.083Z,1006.34
2022-12-27T23:35:04.025Z,1006.4
2022-12-27T23:40:03.254Z,1006.44
2022-12-27T23:45:02.983Z,1006.75
2022-12-27T23:50:03.350Z,1007.12
2022-12-27T23:55:03.048Z,1007.57
